Terminal Aerodrome Forecast
Issued by NWS

Home | Current Version | Previous Version | Text Only | Print | Product List | Glossary On
Versions: 1 2 3 4 5 6 7 8 9 10 11 12 13 14 15 16 17 18 19 20 21 22 23
000
FTUS44 KJAN 040200 AAA
TAFHKS
TAF AMD
KHKS 040245Z 0403/0424 17010KT 6SM BR BKN012 OVC060
     FM040700 17005KT 4SM BR OVC007
     FM041000 18005KT 2SM BR OVC003
     FM041500 19008KT 4SM BR OVC007
     FM041700 20010G16KT P6SM OVC015
     FM042300 29009KT 4SM -RA BR OVC007=

USA.gov is the U.S. government's official web portal to all federal, state and local government web resources and services.